Time;durP1;ratioP1;P1;durP2;ratioP2;P2;SDS_P1;SDS_P2;PMS_P1;PMS_P2;Temp;Humidity;BMP_temperature;BMP_pressure;BME280_temperature;BME280_humidity;BME280_pressure;Samples;Min_cycle;Max_cycle;Signal;HPM_P1;HPM_P2
2022/07/09 00:01:27;;;;;;;7.68;6.03;;;;;;;15.85;84.89;102777.34;6148906;23;20005;-74
2022/07/09 00:03:54;;;;;;;8.77;6.13;;;;;;;15.86;84.55;102770.22;6152733;23;20010;-74
2022/07/09 00:06:20;;;;;;;9.05;6.70;;;;;;;15.82;84.78;102766.91;6151870;23;20009;-76
2022/07/09 00:08:45;;;;;;;9.05;6.63;;;;;;;15.86;84.79;102775.53;6152271;23;20084;-76
2022/07/09 00:11:11;;;;;;;10.77;6.75;;;;;;;15.75;85.47;102775.38;6152632;23;20285;-74
2022/07/09 00:13:36;;;;;;;8.57;7.28;;;;;;;15.78;85.53;102768.06;6149953;23;20422;-74
2022/07/09 00:16:01;;;;;;;11.00;7.10;;;;;;;15.77;85.41;102773.50;6152231;23;20081;-76
2022/07/09 00:18:27;;;;;;;10.18;7.30;;;;;;;15.72;85.18;102772.94;6151087;23;20379;-76
2022/07/09 00:20:55;;;;;;;9.23;8.15;;;;;;;15.65;85.92;102773.34;6152169;23;20043;-74
2022/07/09 00:23:20;;;;;;;10.82;8.00;;;;;;;15.59;86.55;102773.72;6150814;23;20014;-76
2022/07/09 00:25:46;;;;;;;9.98;7.70;;;;;;;15.57;86.93;102770.28;6152926;23;20035;-76
2022/07/09 00:28:11;;;;;;;10.02;8.20;;;;;;;15.53;87.37;102767.91;6152531;23;20012;-74
2022/07/09 00:30:36;;;;;;;12.75;8.40;;;;;;;15.49;87.37;102767.25;6150958;23;20017;-76
2022/07/09 00:33:03;;;;;;;11.25;8.00;;;;;;;15.47;87.57;102763.84;6153261;23;20006;-74
2022/07/09 00:35:30;;;;;;;8.02;7.22;;;;;;;15.46;87.18;102767.47;6151985;23;19997;-76
2022/07/09 00:37:55;;;;;;;9.73;7.50;;;;;;;15.50;86.35;102768.13;6152899;23;20005;-74
2022/07/09 00:40:21;;;;;;;11.80;8.68;;;;;;;15.41;87.22;102766.91;6152506;23;20482;-74
2022/07/09 00:42:46;;;;;;;10.23;8.88;;;;;;;15.36;87.51;102758.41;6153344;23;20006;-76
2022/07/09 00:45:11;;;;;;;9.70;8.40;;;;;;;15.41;87.24;102763.41;6152070;23;20009;-75
2022/07/09 00:47:37;;;;;;;11.23;8.73;;;;;;;15.37;87.58;102760.09;6152550;23;20088;-73
2022/07/09 00:50:03;;;;;;;14.73;9.20;;;;;;;15.32;88.18;102762.19;6151486;23;20008;-73
2022/07/09 00:52:31;;;;;;;12.25;9.60;;;;;;;15.33;88.30;102761.25;6152842;23;20051;-73
2022/07/09 00:55:00;;;;;;;11.63;9.98;;;;;;;15.26;88.48;102768.75;6153175;23;20001;-75
2022/07/09 00:57:25;;;;;;;14.07;9.82;;;;;;;15.27;88.35;102762.47;6149251;23;20010;-75
2022/07/09 00:59:51;;;;;;;13.98;10.23;;;;;;;15.24;88.42;102770.63;6152976;23;20013;-75
2022/07/09 01:02:21;;;;;;;12.55;10.32;;;;;;;15.15;88.39;102762.38;6150635;23;20096;-73
2022/07/09 01:04:47;;;;;;;14.73;9.57;;;;;;;15.14;88.08;102764.19;6149645;23;20016;-73
2022/07/09 01:07:13;;;;;;;10.90;9.57;;;;;;;15.13;88.16;102754.53;6152173;23;20336;-74
2022/07/09 01:09:39;;;;;;;11.70;10.45;;;;;;;15.12;88.71;102757.28;6151052;23;20103;-74
2022/07/09 01:12:06;;;;;;;15.07;10.68;;;;;;;15.08;88.98;102755.75;6151458;23;20218;-76
2022/07/09 01:14:34;;;;;;;13.52;11.00;;;;;;;15.02;89.33;102749.91;6150705;23;20185;-76
2022/07/09 01:17:04;;;;;;;12.50;10.82;;;;;;;15.04;88.97;102748.00;6151987;23;20436;-74
2022/07/09 01:19:31;;;;;;;12.13;10.88;;;;;;;15.00;88.97;102743.84;6149053;23;20028;-75
2022/07/09 01:21:58;;;;;;;11.57;10.38;;;;;;;14.96;88.77;102747.63;6151857;23;20005;-73
2022/07/09 01:24:24;;;;;;;13.98;10.68;;;;;;;15.03;88.92;102742.81;6151073;23;20328;-75
2022/07/09 01:26:52;;;;;;;13.68;11.38;;;;;;;14.93;89.35;102737.22;6151368;23;20491;-75
2022/07/09 01:29:17;;;;;;;12.05;10.85;;;;;;;14.91;89.57;102725.88;6148835;23;20005;-77
2022/07/09 01:31:42;;;;;;;12.65;10.82;;;;;;;14.93;89.13;102731.94;6152078;23;20084;-75
2022/07/09 01:34:08;;;;;;;11.88;10.68;;;;;;;14.95;89.19;102729.19;6125474;23;20080;-77
2022/07/09 01:36:33;;;;;;;12.30;10.73;;;;;;;14.92;89.12;102727.56;6151074;23;20415;-74
2022/07/09 01:38:59;;;;;;;14.68;10.45;;;;;;;14.87;88.94;102721.72;6151733;23;20105;-75
2022/07/09 01:41:24;;;;;;;12.05;10.50;;;;;;;14.81;89.47;102719.44;6149906;23;20002;-75
2022/07/09 01:43:49;;;;;;;12.05;10.70;;;;;;;14.81;89.23;102714.16;6150851;23;20478;-75
2022/07/09 01:46:18;;;;;;;10.82;9.82;;;;;;;14.79;89.36;102721.31;6151428;23;20052;-76
2022/07/09 01:48:43;;;;;;;11.93;10.63;;;;;;;14.71;89.45;102719.13;6152206;23;20012;-74
2022/07/09 01:51:12;;;;;;;10.63;9.52;;;;;;;14.70;89.10;102719.22;6152166;23;20072;-76
2022/07/09 01:53:37;;;;;;;10.57;9.57;;;;;;;14.65;89.20;102716.88;6150862;23;20089;-74
2022/07/09 01:56:07;;;;;;;11.02;9.70;;;;;;;14.62;89.43;102710.91;6152046;23;20026;-76
2022/07/09 01:58:33;;;;;;;12.77;9.32;;;;;;;14.59;88.87;102716.41;6151405;23;20009;-74
2022/07/09 02:00:58;;;;;;;11.70;9.65;;;;;;;14.55;89.44;102715.72;6125682;23;20008;-76
2022/07/09 02:03:24;;;;;;;12.27;10.55;;;;;;;14.51;89.52;102708.06;6151738;23;20017;-74
2022/07/09 02:05:49;;;;;;;12.73;11.43;;;;;;;14.52;89.67;102715.06;6152212;23;20317;-76
2022/07/09 02:08:15;;;;;;;11.68;10.48;;;;;;;14.54;89.29;102713.19;6124798;23;20006;-77
2022/07/09 02:10:40;;;;;;;10.35;9.40;;;;;;;14.50;89.24;102716.97;6149529;23;20020;-75
2022/07/09 02:13:05;;;;;;;11.45;10.35;;;;;;;14.54;88.81;102714.03;6151371;23;20083;-75
2022/07/09 02:15:31;;;;;;;13.68;10.95;;;;;;;14.44;89.12;102706.75;6150362;23;20324;-75
2022/07/09 02:17:56;;;;;;;12.25;10.93;;;;;;;14.39;89.33;102710.47;6151540;23;20072;-75
2022/07/09 02:20:22;;;;;;;11.70;10.60;;;;;;;14.43;89.12;102710.34;6150603;23;20432;-76
2022/07/09 02:22:48;;;;;;;11.75;10.52;;;;;;;14.35;89.30;102703.66;6151055;23;20162;-75
2022/07/09 02:25:13;;;;;;;11.73;10.52;;;;;;;14.32;89.16;102703.81;6150900;23;20064;-77
2022/07/09 02:27:38;;;;;;;12.63;11.13;;;;;;;14.27;89.48;102702.41;6150643;23;20001;-75
2022/07/09 02:30:04;;;;;;;11.43;10.23;;;;;;;14.25;89.49;102701.66;6150361;23;20052;-75
2022/07/09 02:32:29;;;;;;;13.18;10.60;;;;;;;14.22;89.49;102707.97;6150460;23;20436;-75
2022/07/09 02:34:55;;;;;;;11.68;10.48;;;;;;;14.17;89.79;102696.81;6151784;23;20001;-77
2022/07/09 02:37:20;;;;;;;12.88;10.65;;;;;;;14.17;90.15;102693.31;6148765;23;20013;-77
2022/07/09 02:39:46;;;;;;;13.15;11.05;;;;;;;14.14;89.73;102706.75;6151291;23;20001;-77
2022/07/09 02:42:11;;;;;;;13.40;10.95;;;;;;;14.09;89.84;102701.72;6151172;23;20009;-77
2022/07/09 02:44:36;;;;;;;14.68;11.55;;;;;;;14.11;89.66;102705.97;6124086;23;20016;-77
2022/07/09 02:47:02;;;;;;;12.60;11.30;;;;;;;14.12;89.17;102701.53;6151815;23;20076;-77
2022/07/09 02:49:27;;;;;;;30.05;12.35;;;;;;;14.04;89.39;102699.34;6150935;23;20022;-77
2022/07/09 02:51:54;;;;;;;13.27;12.05;;;;;;;14.00;89.91;102696.94;6151615;23;20005;-75
2022/07/09 02:54:19;;;;;;;13.32;12.02;;;;;;;13.98;90.19;102696.19;6151234;23;19997;-75
2022/07/09 02:56:45;;;;;;;12.68;11.50;;;;;;;14.01;90.03;102690.75;6150539;23;20009;-75
2022/07/09 02:59:10;;;;;;;12.38;10.98;;;;;;;13.97;89.42;102686.53;6150406;23;20013;-75
2022/07/09 03:01:36;;;;;;;13.18;11.77;;;;;;;13.86;90.12;102691.63;6149320;23;20020;-75
2022/07/09 03:04:01;;;;;;;13.27;11.98;;;;;;;13.86;90.21;102688.97;6150690;23;20045;-77
2022/07/09 03:06:26;;;;;;;15.48;12.90;;;;;;;13.83;90.14;102689.16;6124384;23;20017;-77
2022/07/09 03:08:52;;;;;;;15.57;13.30;;;;;;;13.89;90.08;102683.50;6125518;23;20005;-77
2022/07/09 03:11:17;;;;;;;15.20;13.73;;;;;;;13.77;90.53;102688.56;6148721;23;20001;-75
2022/07/09 03:13:42;;;;;;;16.25;14.57;;;;;;;13.75;90.20;102689.59;6151112;23;20048;-77
2022/07/09 03:16:08;;;;;;;17.13;15.32;;;;;;;13.69;90.79;102682.03;6150857;23;20055;-75
2022/07/09 03:18:33;;;;;;;18.30;15.55;;;;;;;13.69;90.79;102687.31;6149176;23;20016;-76
2022/07/09 03:20:59;;;;;;;16.45;14.85;;;;;;;13.67;90.70;102684.75;6151024;23;20041;-73
2022/07/09 03:23:24;;;;;;;19.05;16.55;;;;;;;13.63;91.17;102683.22;6124029;23;20006;-76
2022/07/09 03:25:50;;;;;;;18.08;16.33;;;;;;;13.64;90.82;102677.00;6124098;23;20046;-76
2022/07/09 03:28:18;;;;;;;19.67;17.70;;;;;;;13.61;91.50;102682.47;6151362;23;20084;-74
2022/07/09 03:30:44;;;;;;;22.30;19.88;;;;;;;13.61;92.17;102679.81;6151237;23;20060;-76
2022/07/09 03:33:11;;;;;;;23.58;20.23;;;;;;;13.61;92.31;102684.22;6124033;23;20009;-76
2022/07/09 03:35:36;;;;;;;22.70;20.48;;;;;;;13.61;92.38;102684.22;6123818;23;20247;-73
2022/07/09 03:38:02;;;;;;;23.50;21.17;;;;;;;13.61;92.69;102685.13;6151060;23;20006;-73
2022/07/09 03:40:27;;;;;;;25.58;22.27;;;;;;;13.61;92.80;102678.94;6149087;23;20005;-76
2022/07/09 03:42:53;;;;;;;25.67;23.13;;;;;;;13.59;93.29;102676.38;6151176;23;20008;-74
2022/07/09 03:45:19;;;;;;;28.45;25.13;;;;;;;13.59;94.13;102681.66;6150701;23;20340;-76
2022/07/09 03:47:44;;;;;;;27.10;24.17;;;;;;;13.64;94.21;102692.03;6124597;23;20060;-74
2022/07/09 03:50:09;;;;;;;28.00;23.67;;;;;;;13.67;93.40;102690.03;6151564;23;20154;-76
2022/07/09 03:52:35;;;;;;;26.88;23.23;;;;;;;13.69;93.64;102687.31;6149066;23;20244;-76
2022/07/09 03:55:00;;;;;;;28.70;24.92;;;;;;;13.73;93.96;102694.13;6151271;23;20005;-76
2022/07/09 03:57:26;;;;;;;28.65;25.65;;;;;;;13.72;94.59;102687.97;6150729;23;20005;-76
2022/07/09 03:59:51;;;;;;;29.38;26.25;;;;;;;13.71;94.69;102686.28;6150993;23;20008;-76
2022/07/09 04:02:16;;;;;;;29.75;26.65;;;;;;;13.74;95.12;102680.81;6151022;23;20012;-76
2022/07/09 04:04:43;;;;;;;31.42;26.50;;;;;;;13.75;95.18;102682.50;6101282;23;20017;-77
2022/07/09 04:07:09;;;;;;;29.98;26.98;;;;;;;13.80;95.37;102684.88;6151096;23;20368;-76
2022/07/09 04:09:34;;;;;;;30.63;26.67;;;;;;;13.85;95.55;102677.53;6150595;23;20006;-73
2022/07/09 04:11:59;;;;;;;32.38;29.02;;;;;;;14.01;96.50;102677.50;6151077;23;20009;-74
2022/07/09 04:14:25;;;;;;;33.55;28.65;;;;;;;14.30;95.51;102678.38;6149472;23;20106;-74
2022/07/09 04:16:50;;;;;;;28.23;25.42;;;;;;;14.72;93.04;102683.75;6150659;23;20059;-73
2022/07/09 04:19:18;;;;;;;28.48;25.45;;;;;;;15.24;90.94;102672.50;6151265;23;20005;-74
2022/07/09 04:21:44;;;;;;;28.63;25.58;;;;;;;15.63;88.60;102674.41;6150436;23;20010;-74
2022/07/09 04:24:09;;;;;;;27.33;24.42;;;;;;;16.05;86.32;102669.81;6151605;23;20099;-76
2022/07/09 04:26:34;;;;;;;27.40;24.42;;;;;;;16.08;85.32;102664.31;6150399;23;20253;-76
2022/07/09 04:28:59;;;;;;;30.02;26.90;;;;;;;15.66;86.37;102663.59;6152569;23;20005;-77
2022/07/09 04:31:25;;;;;;;28.60;25.75;;;;;;;15.56;87.57;102662.44;6152261;23;20081;-76
2022/07/09 04:33:50;;;;;;;29.73;26.52;;;;;;;15.39;88.12;102654.75;6152660;23;20032;-74
2022/07/09 04:36:18;;;;;;;31.58;27.08;;;;;;;15.21;89.48;102662.09;6125538;23;20005;-74
2022/07/09 04:38:44;;;;;;;35.08;30.42;;;;;;;15.05;90.90;102656.06;6152770;23;20088;-74
2022/07/09 04:41:09;;;;;;;33.50;30.00;;;;;;;15.20;90.60;102667.47;6126554;23;20230;-74
2022/07/09 04:43:35;;;;;;;34.10;30.35;;;;;;;15.09;90.77;102670.81;6151212;23;20459;-74
2022/07/09 04:46:00;;;;;;;35.60;31.83;;;;;;;15.03;91.85;102660.63;6152612;23;20028;-74
2022/07/09 04:48:26;;;;;;;37.03;33.13;;;;;;;15.05;92.30;102664.88;6151858;23;20227;-74
2022/07/09 04:50:51;;;;;;;37.83;33.67;;;;;;;15.09;92.54;102656.72;6151890;23;20001;-77
2022/07/09 04:53:17;;;;;;;38.22;34.05;;;;;;;15.04;92.71;102660.53;6152102;23;20005;-77
2022/07/09 04:55:42;;;;;;;37.83;32.80;;;;;;;15.18;92.24;102658.78;6153001;23;20029;-77
2022/07/09 04:58:08;;;;;;;42.83;35.45;;;;;;;15.06;93.18;102668.38;6152453;23;20005;-74
2022/07/09 05:00:33;;;;;;;39.88;35.83;;;;;;;15.07;93.52;102664.78;6152592;23;20009;-77
2022/07/09 05:02:59;;;;;;;42.10;37.60;;;;;;;15.00;94.00;102656.38;6126731;23;20381;-77
2022/07/09 05:05:25;;;;;;;40.78;36.45;;;;;;;15.01;94.48;102658.06;6151245;23;20009;-76
2022/07/09 05:07:51;;;;;;;43.20;38.58;;;;;;;15.00;94.96;102651.06;6152943;23;20498;-76
2022/07/09 05:10:19;;;;;;;44.85;39.95;;;;;;;14.97;95.89;102658.38;6151684;23;20001;-76
2022/07/09 05:12:46;;;;;;;43.53;38.85;;;;;;;15.03;95.84;102653.50;6153201;23;20488;-77
2022/07/09 05:15:12;;;;;;;41.95;37.53;;;;;;;15.11;95.25;102654.81;6111719;23;20021;-76
2022/07/09 05:17:39;;;;;;;43.85;39.08;;;;;;;15.23;94.96;102659.34;6124627;23;20020;-73
2022/07/09 05:20:06;;;;;;;45.88;40.85;;;;;;;15.27;94.89;102664.34;6152295;23;20084;-77
2022/07/09 05:22:33;;;;;;;44.50;39.72;;;;;;;15.26;95.34;102659.16;6151369;23;20109;-77
2022/07/09 05:24:59;;;;;;;44.97;40.25;;;;;;;15.34;94.94;102656.84;6151406;23;20044;-74
2022/07/09 05:27:25;;;;;;;42.33;37.80;;;;;;;15.43;94.64;102656.25;6149832;23;20036;-77
2022/07/09 05:29:51;;;;;;;43.45;38.53;;;;;;;15.48;94.04;102650.63;6126004;23;20013;-77
2022/07/09 05:32:19;;;;;;;44.58;39.80;;;;;;;15.48;94.64;102654.13;6150699;23;20077;-77
2022/07/09 05:34:45;;;;;;;43.88;39.30;;;;;;;15.56;93.97;102650.97;6151886;23;20023;-77
2022/07/09 05:37:10;;;;;;;42.70;38.13;;;;;;;15.65;93.90;102661.03;6152123;23;20012;-77
2022/07/09 05:39:35;;;;;;;43.33;38.70;;;;;;;15.70;93.89;102658.06;6124616;23;20325;-77
2022/07/09 05:42:03;;;;;;;44.70;39.17;;;;;;;15.62;94.64;102659.44;6152023;23;20005;-77
2022/07/09 05:44:28;;;;;;;44.33;39.60;;;;;;;15.61;94.98;102662.19;6150867;23;20002;-76
2022/07/09 05:46:53;;;;;;;46.50;40.20;;;;;;;15.60;95.32;102653.34;6151549;23;20021;-76
2022/07/09 05:49:19;;;;;;;43.85;39.42;;;;;;;15.63;95.13;102653.16;6149536;23;20009;-74
2022/07/09 05:51:45;;;;;;;42.40;37.92;;;;;;;15.75;94.73;102650.66;6126354;23;20005;-74
2022/07/09 05:54:10;;;;;;;45.22;39.28;;;;;;;15.79;95.50;102642.38;6125487;23;20375;-76
2022/07/09 05:56:36;;;;;;;42.53;38.10;;;;;;;15.90;94.60;102647.81;6151351;23;20470;-76
2022/07/09 05:59:05;;;;;;;41.47;36.90;;;;;;;15.95;94.13;102647.47;6151917;23;20451;-76
2022/07/09 06:01:30;;;;;;;46.10;38.42;;;;;;;15.92;94.58;102648.53;6150647;23;20009;-76
2022/07/09 06:03:58;;;;;;;39.75;35.65;;;;;;;16.04;94.11;102654.00;6151433;23;20013;-77
2022/07/09 06:06:23;;;;;;;42.30;37.75;;;;;;;16.09;94.12;102657.19;6151195;23;20012;-75
2022/07/09 06:08:48;;;;;;;42.92;37.90;;;;;;;16.18;93.99;102649.44;6151274;23;20005;-77
2022/07/09 06:11:18;;;;;;;41.38;37.22;;;;;;;16.23;93.65;102657.94;6152795;23;20052;-77
2022/07/09 06:13:43;;;;;;;40.90;36.13;;;;;;;16.46;93.13;102650.19;6150960;23;20282;-77
2022/07/09 06:16:09;;;;;;;40.17;36.03;;;;;;;16.59;92.92;102656.31;6152889;23;20462;-75
2022/07/09 06:18:35;;;;;;;41.42;36.97;;;;;;;16.64;92.60;102656.84;6151454;23;20007;-75
2022/07/09 06:21:01;;;;;;;41.42;37.03;;;;;;;16.63;92.50;102655.16;6150464;23;20080;-74
2022/07/09 06:23:26;;;;;;;42.10;37.60;;;;;;;16.67;93.16;102656.66;6149555;23;20005;-77
2022/07/09 06:25:52;;;;;;;39.45;35.28;;;;;;;16.89;92.43;102650.69;6151909;23;20085;-77
2022/07/09 06:28:17;;;;;;;40.70;35.45;;;;;;;16.96;92.32;102659.91;6150755;23;20006;-77
2022/07/09 06:30:43;;;;;;;40.35;36.08;;;;;;;17.10;91.97;102658.91;6152241;23;20001;-77
2022/07/09 06:33:09;;;;;;;40.10;35.75;;;;;;;17.21;91.64;102661.63;6151630;23;20439;-77
2022/07/09 06:35:34;;;;;;;38.08;34.08;;;;;;;17.25;91.31;102655.13;6150715;23;20117;-77
2022/07/09 06:38:00;;;;;;;38.45;34.03;;;;;;;17.39;90.55;102665.59;6152358;23;20048;-76
2022/07/09 06:40:26;;;;;;;37.80;33.60;;;;;;;17.40;90.80;102661.97;6124961;23;20001;-77
2022/07/09 06:42:51;;;;;;;37.33;33.28;;;;;;;17.54;90.23;102667.13;6151422;23;20395;-75
2022/07/09 06:45:19;;;;;;;37.83;33.58;;;;;;;17.68;89.78;102665.28;6148612;23;20335;-74
2022/07/09 06:47:48;;;;;;;37.83;33.80;;;;;;;17.74;89.71;102665.69;6151634;23;20040;-74
2022/07/09 06:50:14;;;;;;;37.72;33.90;;;;;;;17.84;89.62;102668.50;6149212;23;20006;-76
2022/07/09 06:52:39;;;;;;;38.05;33.97;;;;;;;17.88;89.50;102666.44;6150744;23;20427;-77
2022/07/09 06:55:05;;;;;;;38.95;33.22;;;;;;;18.02;89.19;102659.13;6125476;23;20372;-77
2022/07/09 06:57:30;;;;;;;38.20;34.10;;;;;;;18.03;88.93;102658.16;6123769;23;20013;-76
2022/07/09 06:59:56;;;;;;;38.08;33.70;;;;;;;18.10;88.82;102651.38;6122239;23;20321;-76
2022/07/09 07:02:21;;;;;;;37.13;33.22;;;;;;;18.13;89.28;102652.97;6150561;23;20336;-77
2022/07/09 07:04:47;;;;;;;43.05;33.20;;;;;;;18.23;89.00;102653.09;6150044;23;20009;-76
2022/07/09 07:07:12;;;;;;;35.95;32.25;;;;;;;18.53;88.38;102652.50;6151693;23;20005;-77
2022/07/09 07:09:37;;;;;;;35.20;30.58;;;;;;;18.76;87.20;102665.72;6150506;23;20068;-77
2022/07/09 07:12:03;;;;;;;34.88;31.25;;;;;;;18.85;86.18;102658.84;6149001;23;20012;-76
2022/07/09 07:14:29;;;;;;;33.38;29.88;;;;;;;19.01;84.86;102653.09;6149422;23;19998;-76
2022/07/09 07:16:54;;;;;;;29.40;26.30;;;;;;;19.04;84.03;102651.03;6150920;23;20009;-76
2022/07/09 07:19:22;;;;;;;27.50;24.40;;;;;;;19.20;82.32;102657.78;6150550;23;20017;-78
2022/07/09 07:21:48;;;;;;;27.13;24.00;;;;;;;19.31;82.15;102658.63;6150785;23;20369;-77
2022/07/09 07:24:14;;;;;;;26.85;24.02;;;;;;;19.44;81.35;102654.94;6148788;23;20009;-77
2022/07/09 07:26:39;;;;;;;28.75;24.40;;;;;;;19.75;80.51;102654.09;6124430;23;20009;-77
2022/07/09 07:29:05;;;;;;;30.20;23.20;;;;;;;20.02;77.95;102646.44;6151469;23;20016;-77
2022/07/09 07:31:32;;;;;;;28.02;22.55;;;;;;;20.28;77.50;102651.34;6149512;23;20371;-78
2022/07/09 07:33:59;;;;;;;24.38;21.88;;;;;;;20.65;77.09;102641.00;6150919;23;20052;-78
2022/07/09 07:36:24;;;;;;;24.33;21.73;;;;;;;20.88;74.32;102649.66;6124757;23;20387;-78
2022/07/09 07:38:50;;;;;;;24.90;22.20;;;;;;;20.80;72.97;102652.16;6150308;23;20005;-74
2022/07/09 07:41:18;;;;;;;24.38;21.73;;;;;;;20.81;74.30;102652.03;6149901;23;20006;-75
2022/07/09 07:43:45;;;;;;;24.92;22.23;;;;;;;20.90;73.60;102655.72;6151776;23;20368;-76
2022/07/09 07:46:10;;;;;;;23.73;20.08;;;;;;;21.17;72.23;102650.56;6149158;23;20009;-76
2022/07/09 07:48:37;;;;;;;22.23;19.85;;;;;;;21.10;72.25;102654.78;6150980;23;20045;-76
2022/07/09 07:51:06;;;;;;;23.35;20.85;;;;;;;21.16;72.69;102659.56;6125843;23;20002;-76
2022/07/09 07:53:32;;;;;;;23.88;21.42;;;;;;;21.23;72.36;102659.91;6150304;23;20002;-75
2022/07/09 07:56:00;;;;;;;24.30;21.30;;;;;;;21.35;72.74;102664.16;6149445;23;19997;-75
2022/07/09 07:58:25;;;;;;;25.45;22.88;;;;;;;21.53;72.53;102669.66;6152152;23;20005;-76
2022/07/09 08:00:50;;;;;;;24.92;22.30;;;;;;;21.57;71.07;102663.03;6152790;23;20006;-75
2022/07/09 08:03:19;;;;;;;24.40;21.90;;;;;;;21.66;70.75;102662.19;6152022;23;20048;-77
2022/07/09 08:05:47;;;;;;;27.80;20.95;;;;;;;21.83;71.20;102648.06;6152606;23;20017;-75
2022/07/09 08:08:13;;;;;;;24.77;22.10;;;;;;;21.57;71.19;102652.31;6152377;23;20017;-77
2022/07/09 08:10:38;;;;;;;25.60;22.92;;;;;;;21.54;70.74;102649.91;6152024;23;20047;-77
2022/07/09 08:13:04;;;;;;;25.63;22.95;;;;;;;21.44;70.79;102651.75;6151782;23;20001;-76
2022/07/09 08:15:29;;;;;;;24.20;21.75;;;;;;;21.44;72.55;102649.06;6125726;23;20700;-77
2022/07/09 08:17:54;;;;;;;26.80;22.67;;;;;;;21.54;69.98;102641.88;6153039;23;20013;-77
2022/07/09 08:20:20;;;;;;;28.10;22.27;;;;;;;21.65;70.04;102638.22;6151802;23;20005;-75
2022/07/09 08:22:46;;;;;;;27.25;23.23;;;;;;;21.64;69.62;102636.53;6126866;23;20037;-75
2022/07/09 08:25:13;;;;;;;24.35;20.90;;;;;;;21.72;71.22;102632.16;6152911;23;20005;-77
2022/07/09 08:27:39;;;;;;;23.70;21.10;;;;;;;21.92;69.42;102618.72;6151294;23;20009;-75
2022/07/09 08:30:05;;;;;;;25.30;22.60;;;;;;;21.95;69.06;102615.75;6150915;23;20009;-74
2022/07/09 08:32:35;;;;;;;23.23;19.98;;;;;;;21.84;67.45;102619.44;6151545;23;20021;-77
2022/07/09 08:35:02;;;;;;;24.50;18.67;;;;;;;21.68;67.44;102617.34;6151645;23;20002;-77
2022/07/09 08:37:27;;;;;;;22.75;19.70;;;;;;;21.55;67.71;102620.31;6149960;23;20013;-77
2022/07/09 08:39:52;;;;;;;20.92;17.90;;;;;;;21.51;68.90;102618.06;6150820;23;20016;-75
2022/07/09 08:42:17;;;;;;;20.33;18.23;;;;;;;21.82;68.89;102603.50;6150630;23;20348;-75
2022/07/09 08:44:47;;;;;;;30.25;20.98;;;;;;;21.97;67.43;102606.56;6152491;23;20001;-77
2022/07/09 08:47:14;;;;;;;22.83;18.23;;;;;;;22.25;67.03;102596.78;6152589;23;20011;-77
2022/07/09 08:49:41;;;;;;;19.67;17.58;;;;;;;22.33;64.62;102602.25;6150561;23;20076;-76
2022/07/09 08:52:07;;;;;;;22.95;17.05;;;;;;;22.23;64.17;102606.81;6152223;23;20464;-76
2022/07/09 08:54:36;;;;;;;21.50;17.58;;;;;;;22.19;65.29;102594.69;6151736;23;20032;-76
2022/07/09 08:57:02;;;;;;;18.17;16.25;;;;;;;22.41;65.22;102594.28;6151089;23;20064;-77
2022/07/09 08:59:27;;;;;;;22.42;17.58;;;;;;;22.43;65.13;102597.69;6152208;23;20005;-77
2022/07/09 09:01:53;;;;;;;21.15;16.48;;;;;;;22.57;66.13;102606.25;6153395;23;20005;-76
2022/07/09 09:04:18;;;;;;;19.00;15.27;;;;;;;22.87;63.93;102599.75;6151340;23;20048;-77
2022/07/09 09:06:44;;;;;;;19.90;15.93;;;;;;;22.74;63.07;102594.69;6127098;23;20415;-77
2022/07/09 09:09:19;;;;;;;19.17;14.27;;;;;;;22.91;63.96;102595.78;6126867;23;20084;-77
2022/07/09 09:11:52;;;;;;;18.48;14.40;;;;;;;22.83;63.60;102593.84;6152685;23;20008;-77
2022/07/09 09:14:22;;;;;;;17.42;13.85;;;;;;;22.79;63.86;102603.13;6152362;23;20001;-78
2022/07/09 09:16:47;;;;;;;18.55;13.55;;;;;;;22.77;63.17;102594.38;6151870;23;20009;-78
2022/07/09 09:19:13;;;;;;;16.55;14.15;;;;;;;22.64;63.95;102605.50;6152523;23;20387;-77
2022/07/09 09:21:38;;;;;;;18.15;15.80;;;;;;;22.49;63.42;102601.63;6151981;23;20379;-77
2022/07/09 09:24:04;;;;;;;18.75;14.02;;;;;;;22.50;63.96;102596.13;6152130;23;20001;-77
2022/07/09 09:26:29;;;;;;;23.70;15.85;;;;;;;22.50;64.17;102589.91;6151617;23;20043;-76
2022/07/09 09:29:01;;;;;;;20.33;15.88;;;;;;;22.45;64.90;102592.19;6152127;23;20002;-75
2022/07/09 09:31:32;;;;;;;19.77;16.48;;;;;;;22.30;65.42;102585.59;6150381;23;20056;-75
2022/07/09 09:34:13;;;;;;;18.65;15.50;;;;;;;22.35;66.40;102586.84;6152372;23;20009;-76
2022/07/09 09:36:50;;;;;;;18.60;16.42;;;;;;;22.30;66.23;102588.28;6150913;23;20001;-78
2022/07/09 09:39:24;;;;;;;22.48;16.52;;;;;;;22.41;65.90;102593.44;6151538;23;20008;-77
2022/07/09 09:41:56;;;;;;;19.73;16.48;;;;;;;22.76;65.40;102582.81;6125253;23;20652;-77
2022/07/09 09:44:25;;;;;;;20.95;15.40;;;;;;;23.00;64.49;102587.63;6151272;23;20331;-77
2022/07/09 09:46:56;;;;;;;23.00;14.68;;;;;;;23.02;63.84;102591.00;6124990;23;20006;-78
2022/07/09 09:49:21;;;;;;;16.85;14.13;;;;;;;22.90;64.25;102584.19;6125419;23;20013;-78
2022/07/09 09:52:02;;;;;;;17.45;14.55;;;;;;;22.65;66.09;102595.59;6153467;23;20722;-78
2022/07/09 09:54:28;;;;;;;21.92;16.50;;;;;;;22.37;65.81;102589.38;6151377;23;20008;-78
2022/07/09 09:56:54;;;;;;;23.05;17.38;;;;;;;22.32;66.68;102589.81;6152424;23;20002;-77
2022/07/09 09:59:20;;;;;;;24.60;18.30;;;;;;;22.04;66.88;102594.31;6151187;23;20018;-78
2022/07/09 10:01:46;;;;;;;30.35;18.05;;;;;;;21.95;68.38;102591.63;6126387;23;20084;-77
2022/07/09 10:04:13;;;;;;;74.13;21.20;;;;;;;21.67;69.77;102588.88;6152368;23;20020;-79
2022/07/09 10:06:39;;;;;;;24.83;15.95;;;;;;;21.59;68.89;102597.59;6150907;23;20009;-77
2022/07/09 10:09:07;;;;;;;19.33;14.07;;;;;;;21.47;68.59;102605.94;6150941;23;20428;-77
2022/07/09 10:11:42;;;;;;;17.65;12.65;;;;;;;21.44;69.29;102604.38;6151293;23;20124;-77
2022/07/09 10:14:15;;;;;;;14.20;11.93;;;;;;;21.49;68.39;102601.28;6149928;23;20006;-79
2022/07/09 10:16:41;;;;;;;19.67;13.27;;;;;;;21.44;68.24;102592.81;6125583;23;20009;-79
2022/07/09 10:19:06;;;;;;;16.20;12.68;;;;;;;21.52;69.81;102592.97;6151893;23;20016;-77
2022/07/09 10:21:36;;;;;;;15.73;12.80;;;;;;;21.76;67.74;102584.47;6150045;23;20442;-77
2022/07/09 10:24:05;;;;;;;19.95;11.23;;;;;;;21.84;67.50;102590.78;6125163;23;20005;-80
2022/07/09 10:26:46;;;;;;;11.93;9.15;;;;;;;21.77;66.76;102588.84;6150629;23;20009;-77
2022/07/09 10:29:27;;;;;;;13.20;8.00;;;;;;;21.78;67.53;102591.38;6126385;23;20006;-79
2022/07/09 10:31:54;;;;;;;11.00;7.13;;;;;;;21.83;67.37;102588.25;6126041;23;20009;-77
2022/07/09 10:34:34;;;;;;;9.38;6.50;;;;;;;21.84;67.38;102598.84;6150904;23;20327;-76
2022/07/09 10:37:02;;;;;;;9.13;6.43;;;;;;;21.90;66.60;102597.41;6150590;23;20005;-77
2022/07/09 10:39:29;;;;;;;8.43;5.82;;;;;;;21.98;67.93;102588.63;6151710;23;20037;-76
2022/07/09 10:42:16;;;;;;;10.13;6.00;;;;;;;22.07;67.69;102579.78;6125384;23;20321;-77
2022/07/09 10:44:45;;;;;;;8.20;5.78;;;;;;;22.26;67.28;102582.38;6126038;23;20044;-77
2022/07/09 10:47:11;;;;;;;7.38;4.90;;;;;;;22.75;66.08;102569.53;6149964;23;20009;-77
2022/07/09 10:49:37;;;;;;;7.28;5.10;;;;;;;23.18;63.71;102571.50;6149808;23;20010;-77
2022/07/09 10:52:04;;;;;;;7.72;4.63;;;;;;;23.43;61.53;102581.50;6151242;23;20523;-77
2022/07/09 10:54:29;;;;;;;7.32;3.80;;;;;;;23.55;61.23;102574.03;6150962;23;20367;-77
2022/07/09 10:56:57;;;;;;;5.00;2.70;;;;;;;23.62;59.24;102575.13;6124258;23;20001;-77
2022/07/09 10:59:25;;;;;;;4.57;3.30;;;;;;;24.00;57.76;102573.00;6150837;23;20379;-77
2022/07/09 11:01:51;;;;;;;7.28;3.38;;;;;;;24.18;57.36;102575.63;6124700;23;20019;-77
2022/07/09 11:04:31;;;;;;;9.52;3.50;;;;;;;24.42;58.49;102580.31;6150777;23;20009;-77
2022/07/09 11:06:57;;;;;;;6.40;3.10;;;;;;;24.47;57.75;102581.53;6151434;23;20343;-77
2022/07/09 11:09:27;;;;;;;4.15;2.72;;;;;;;24.26;57.65;102573.81;6123971;23;20419;-77